Time;durP1;ratioP1;P1;durP2;ratioP2;P2;SDS_P1;SDS_P2;PMS_P1;PMS_P2;Temp;Humidity;BMP_temperature;BMP_pressure;BME280_temperature;BME280_humidity;BME280_pressure;Samples;Min_cycle;Max_cycle;Signal;HPM_P1;HPM_P2
2022/08/06 00:01:49;;;;;;;4.13;1.70;;;13.20;99.90;;;;;;4982812;28;20046;-59
2022/08/06 00:04:15;;;;;;;5.22;1.60;;;13.20;99.90;;;;;;4981814;28;20481;-60
2022/08/06 00:06:41;;;;;;;3.45;1.40;;;13.10;99.90;;;;;;4986870;28;20429;-60
2022/08/06 00:09:07;;;;;;;4.97;1.55;;;13.10;99.90;;;;;;4987661;28;20034;-59
2022/08/06 00:11:32;;;;;;;4.28;1.80;;;12.90;99.90;;;;;;4982488;28;20046;-60
2022/08/06 00:13:58;;;;;;;5.10;1.60;;;13.00;99.90;;;;;;4982642;28;20046;-59
2022/08/06 00:16:24;;;;;;;4.32;1.80;;;12.90;99.90;;;;;;4981965;28;20050;-59
2022/08/06 00:18:50;;;;;;;2.95;1.55;;;12.90;99.90;;;;;;4981599;28;20089;-60
2022/08/06 00:21:15;;;;;;;5.20;1.65;;;12.80;99.90;;;;;;4980143;28;20053;-59
2022/08/06 00:23:41;;;;;;;5.00;1.52;;;12.80;99.90;;;;;;4982793;28;20046;-60
2022/08/06 00:26:06;;;;;;;3.55;1.52;;;12.80;99.90;;;;;;4982379;28;20116;-58
2022/08/06 00:28:32;;;;;;;3.92;1.33;;;12.80;99.90;;;;;;4981172;28;20332;-59
2022/08/06 00:31:03;;;;;;;4.95;1.88;;;12.80;99.90;;;;;;4981977;28;20112;-58
2022/08/06 00:33:29;;;;;;;5.30;1.90;;;12.90;99.90;;;;;;4981941;28;20034;-58
2022/08/06 00:35:55;;;;;;;4.28;1.60;;;12.50;99.90;;;;;;4981621;28;20482;-59
2022/08/06 00:38:21;;;;;;;4.07;1.55;;;12.80;99.90;;;;;;4981014;28;20049;-59
2022/08/06 00:40:47;;;;;;;3.78;1.40;;;12.90;99.90;;;;;;4980804;28;20138;-58
2022/08/06 00:43:13;;;;;;;5.55;1.52;;;12.90;99.90;;;;;;4982401;28;20142;-59
2022/08/06 00:45:39;;;;;;;5.35;1.40;;;12.80;99.90;;;;;;4981510;28;20644;-60
2022/08/06 00:48:05;;;;;;;3.58;1.50;;;12.80;99.90;;;;;;4981009;28;20034;-61
2022/08/06 00:50:31;;;;;;;2.67;1.40;;;12.70;99.90;;;;;;4980766;28;20474;-59
2022/08/06 00:52:58;;;;;;;5.72;1.67;;;12.70;99.90;;;;;;4981999;28;20226;-59
2022/08/06 00:55:24;;;;;;;4.13;1.42;;;12.70;99.90;;;;;;4980749;28;20070;-59
2022/08/06 00:57:50;;;;;;;6.45;1.63;;;12.70;99.90;;;;;;4981821;28;20276;-59
2022/08/06 01:00:15;;;;;;;3.35;1.50;;;12.70;99.90;;;;;;4996588;28;20513;-57
2022/08/06 01:02:41;;;;;;;7.80;1.75;;;12.70;99.90;;;;;;4982135;28;20046;-55
2022/08/06 01:05:07;;;;;;;2.75;1.40;;;12.80;99.90;;;;;;4978333;28;20073;-59
2022/08/06 01:07:32;;;;;;;5.20;1.40;;;12.80;99.90;;;;;;4991854;28;20048;-60
2022/08/06 01:09:58;;;;;;;4.80;1.58;;;12.80;99.90;;;;;;4981372;28;20042;-60
2022/08/06 01:12:25;;;;;;;5.10;1.52;;;12.80;99.90;;;;;;4981280;28;20046;-60
2022/08/06 01:14:51;;;;;;;3.70;1.20;;;12.80;99.90;;;;;;4980535;28;20449;-60
2022/08/06 01:17:34;;;;;;;2.95;1.30;;;12.80;99.90;;;;;;4980845;28;20050;-59
2022/08/06 01:20:02;;;;;;;4.53;1.42;;;12.80;99.90;;;;;;4980950;28;20818;-59
2022/08/06 01:22:40;;;;;;;4.32;1.40;;;12.70;99.90;;;;;;4980087;28;20081;-59
2022/08/06 01:25:36;;;;;;;3.50;1.40;;;12.70;99.90;;;;;;4980021;28;20391;-60
2022/08/06 01:28:12;;;;;;;4.63;1.20;;;12.60;99.90;;;;;;4980994;28;20061;-60
2022/08/06 01:30:46;;;;;;;3.25;1.15;;;12.60;99.90;;;;;;4980820;28;20097;-60
2022/08/06 01:33:20;;;;;;;4.13;1.30;;;12.50;99.90;;;;;;4980087;28;20137;-58
2022/08/06 01:35:52;;;;;;;3.28;1.10;;;12.40;99.90;;;;;;4980559;28;20121;-56
2022/08/06 01:38:26;;;;;;;3.55;1.48;;;12.40;99.90;;;;;;4980572;28;20047;-59
2022/08/06 01:40:54;;;;;;;2.30;1.17;;;12.30;99.90;;;;;;4980033;28;20125;-59
2022/08/06 01:43:22;;;;;;;5.15;1.40;;;12.30;99.90;;;;;;4980507;28;20468;-60
2022/08/06 01:45:49;;;;;;;3.67;1.30;;;12.20;99.90;;;;;;4980887;28;20050;-59
2022/08/06 01:48:23;;;;;;;3.55;1.48;;;12.20;99.90;;;;;;4980370;28;20039;-59
2022/08/06 01:50:52;;;;;;;2.53;1.50;;;12.10;99.90;;;;;;4980068;28;20180;-59
2022/08/06 01:53:25;;;;;;;4.63;1.50;;;12.00;99.90;;;;;;4980418;28;20038;-59
2022/08/06 01:55:56;;;;;;;3.28;1.58;;;12.00;99.90;;;;;;4980140;28;20425;-60
2022/08/06 01:58:27;;;;;;;4.10;1.80;;;12.00;99.90;;;;;;4980192;28;20046;-59
2022/08/06 02:00:55;;;;;;;6.80;2.00;;;11.90;99.90;;;;;;4980645;28;20053;-59
2022/08/06 02:03:32;;;;;;;3.63;1.60;;;11.80;99.90;;;;;;4979711;28;20054;-59
2022/08/06 02:06:00;;;;;;;4.45;1.75;;;11.90;99.90;;;;;;4981475;28;20484;-59
2022/08/06 02:08:30;;;;;;;3.85;1.70;;;12.00;99.90;;;;;;4988624;28;20105;-60
2022/08/06 02:10:57;;;;;;;4.10;1.40;;;12.00;99.90;;;;;;4978528;28;20038;-59
2022/08/06 02:13:24;;;;;;;2.90;1.42;;;12.00;99.90;;;;;;4979861;28;20049;-59
2022/08/06 02:15:51;;;;;;;2.80;1.40;;;12.00;99.90;;;;;;4978473;28;20054;-60
2022/08/06 02:18:19;;;;;;;6.40;1.90;;;12.00;99.90;;;;;;4979841;28;20079;-59
2022/08/06 02:20:50;;;;;;;4.63;1.70;;;11.90;99.90;;;;;;4978926;28;20130;-59
2022/08/06 02:23:22;;;;;;;3.38;1.60;;;11.80;99.90;;;;;;4980002;28;20463;-59
2022/08/06 02:25:49;;;;;;;2.80;1.40;;;11.90;99.90;;;;;;4980069;28;20554;-59
2022/08/06 02:28:18;;;;;;;2.63;1.52;;;11.80;99.90;;;;;;4979710;28;20050;-59
2022/08/06 02:30:46;;;;;;;5.97;1.60;;;11.70;99.90;;;;;;4980624;28;20069;-59
2022/08/06 02:33:13;;;;;;;2.33;1.60;;;11.60;99.90;;;;;;4986151;28;20052;-60
2022/08/06 02:36:06;;;;;;;3.47;1.55;;;11.70;99.90;;;;;;4998624;28;20096;-59
2022/08/06 02:38:39;;;;;;;3.70;1.50;;;11.70;99.90;;;;;;4999082;28;20077;-60
2022/08/06 02:41:21;;;;;;;3.65;1.60;;;11.80;99.90;;;;;;4999504;28;20056;-59
2022/08/06 02:43:52;;;;;;;3.67;1.70;;;11.70;99.90;;;;;;4999213;28;20081;-59
2022/08/06 02:46:32;;;;;;;2.92;1.52;;;11.80;99.90;;;;;;4998894;28;20057;-58
2022/08/06 02:49:06;;;;;;;4.13;1.70;;;11.70;99.90;;;;;;4999077;28;20088;-59
2022/08/06 02:51:38;;;;;;;3.42;1.60;;;11.70;99.90;;;;;;4998321;28;20077;-60
2022/08/06 02:54:08;;;;;;;3.35;1.63;;;11.60;99.90;;;;;;4999155;28;20052;-59
2022/08/06 02:56:37;;;;;;;6.95;1.80;;;11.50;99.90;;;;;;4998789;28;20780;-61
2022/08/06 02:59:04;;;;;;;6.53;1.73;;;11.50;99.90;;;;;;4999278;28;20050;-59
2022/08/06 03:01:36;;;;;;;4.35;1.77;;;11.40;99.90;;;;;;4998607;28;20455;-60
2022/08/06 03:04:02;;;;;;;4.15;2.10;;;11.50;99.90;;;;;;4997967;28;20058;-59
2022/08/06 03:06:34;;;;;;;3.60;1.70;;;11.40;99.90;;;;;;4991476;28;20085;-59
2022/08/06 03:09:02;;;;;;;4.20;1.90;;;11.50;99.90;;;;;;4994178;28;20057;-59
2022/08/06 03:11:34;;;;;;;4.55;2.10;;;11.30;99.90;;;;;;4978289;28;20081;-60
2022/08/06 03:14:06;;;;;;;5.20;2.10;;;11.30;99.90;;;;;;4979166;28;20041;-60
2022/08/06 03:16:35;;;;;;;3.30;2.10;;;11.20;99.90;;;;;;4978066;28;20051;-60
2022/08/06 03:19:03;;;;;;;5.25;2.10;;;11.10;99.90;;;;;;4978293;28;20117;-60
2022/08/06 03:21:30;;;;;;;4.43;2.40;;;11.10;99.90;;;;;;4978206;28;20437;-60
2022/08/06 03:23:58;;;;;;;4.07;2.20;;;11.00;99.90;;;;;;4977746;28;20488;-57
2022/08/06 03:26:25;;;;;;;4.20;2.22;;;11.00;99.90;;;;;;4978418;28;20642;-59
2022/08/06 03:28:54;;;;;;;4.32;2.60;;;11.00;99.90;;;;;;4977746;28;20387;-59
2022/08/06 03:31:21;;;;;;;3.85;2.65;;;10.90;99.90;;;;;;4977400;28;20046;-59
2022/08/06 03:33:47;;;;;;;6.30;2.80;;;11.00;99.90;;;;;;4978030;28;20442;-59
2022/08/06 03:36:14;;;;;;;6.32;2.72;;;10.90;99.90;;;;;;4977823;28;20053;-60
2022/08/06 03:38:44;;;;;;;5.50;2.78;;;10.90;99.90;;;;;;4979281;28;20712;-60
2022/08/06 03:41:13;;;;;;;4.03;2.50;;;10.90;99.90;;;;;;4978525;28;20050;-60
2022/08/06 03:43:39;;;;;;;4.45;2.70;;;10.90;99.90;;;;;;4978950;28;20050;-59
2022/08/06 03:46:06;;;;;;;5.68;3.10;;;10.80;99.90;;;;;;4977901;28;20046;-59
2022/08/06 03:48:39;;;;;;;5.10;2.90;;;10.80;99.90;;;;;;4978528;28;20038;-59
2022/08/06 03:51:16;;;;;;;5.35;2.83;;;10.80;99.90;;;;;;4978113;28;20038;-59
2022/08/06 03:53:43;;;;;;;4.60;2.53;;;10.90;99.90;;;;;;4978386;28;20113;-57
2022/08/06 03:56:13;;;;;;;5.35;2.67;;;11.00;99.90;;;;;;4979129;28;20526;-59
2022/08/06 03:58:42;;;;;;;5.75;3.00;;;10.90;99.90;;;;;;4978140;28;20042;-59
2022/08/06 04:01:11;;;;;;;5.35;2.80;;;10.90;99.90;;;;;;4977993;28;20496;-59
2022/08/06 04:03:38;;;;;;;7.05;3.30;;;11.00;99.90;;;;;;4978542;28;20054;-59
2022/08/06 04:06:04;;;;;;;7.65;3.22;;;10.80;99.90;;;;;;4980093;28;20073;-59
2022/08/06 04:08:33;;;;;;;5.18;3.28;;;10.90;99.90;;;;;;4987075;28;20077;-59
2022/08/06 04:11:00;;;;;;;6.63;3.60;;;10.90;99.90;;;;;;4977906;28;20054;-59
2022/08/06 04:13:28;;;;;;;4.75;3.40;;;10.90;99.90;;;;;;4978361;28;20789;-60
2022/08/06 04:15:55;;;;;;;6.13;3.08;;;10.80;99.90;;;;;;4978734;28;20446;-59
2022/08/06 04:18:27;;;;;;;5.82;3.47;;;11.00;99.90;;;;;;4977258;28;20244;-60
2022/08/06 04:20:58;;;;;;;4.78;3.38;;;10.80;99.90;;;;;;4977746;28;20054;-59
2022/08/06 04:23:23;;;;;;;7.57;3.50;;;10.80;99.90;;;;;;4978241;28;20099;-59
2022/08/06 04:25:54;;;;;;;7.32;3.70;;;10.80;99.90;;;;;;4978427;28;20770;-60
2022/08/06 04:28:23;;;;;;;5.20;3.45;;;10.70;99.90;;;;;;4978157;28;20078;-59
2022/08/06 04:30:50;;;;;;;5.30;3.50;;;10.70;99.90;;;;;;4977224;28;20054;-60
2022/08/06 04:33:19;;;;;;;5.05;3.28;;;10.70;99.90;;;;;;4978154;28;20054;-58
2022/08/06 04:35:45;;;;;;;5.22;3.20;;;10.70;99.90;;;;;;4977451;28;20038;-60
2022/08/06 04:38:13;;;;;;;7.22;3.10;;;10.90;99.90;;;;;;4979458;28;20189;-57
2022/08/06 04:40:40;;;;;;;6.88;3.45;;;10.80;99.90;;;;;;4981969;28;20490;-59
2022/08/06 04:43:07;;;;;;;5.88;3.25;;;10.80;99.90;;;;;;4980828;28;20672;-59
2022/08/06 04:45:34;;;;;;;5.97;3.22;;;10.80;99.90;;;;;;4979551;28;20994;-58
2022/08/06 04:48:02;;;;;;;5.60;2.92;;;10.90;99.90;;;;;;4981589;28;20129;-59
2022/08/06 04:50:29;;;;;;;6.82;3.42;;;10.90;99.90;;;;;;4980939;28;20031;-58
2022/08/06 04:53:08;;;;;;;5.05;2.97;;;10.90;99.90;;;;;;4980850;28;20492;-58
2022/08/06 04:55:33;;;;;;;6.05;2.80;;;11.30;99.90;;;;;;4981288;28;20122;-59
2022/08/06 04:58:01;;;;;;;3.63;2.35;;;11.70;99.90;;;;;;4981521;28;20132;-58
2022/08/06 05:00:26;;;;;;;3.88;2.47;;;12.10;99.90;;;;;;4980465;28;20659;-59
2022/08/06 05:02:52;;;;;;;4.03;2.42;;;12.40;99.90;;;;;;4981716;28;20046;-58
2022/08/06 05:05:20;;;;;;;3.60;2.20;;;12.40;99.90;;;;;;4979309;28;20058;-58
2022/08/06 05:07:48;;;;;;;4.68;2.33;;;12.60;99.90;;;;;;4992799;28;20396;-59
2022/08/06 05:10:14;;;;;;;4.10;2.38;;;12.60;99.90;;;;;;4981160;28;20050;-58
2022/08/06 05:12:46;;;;;;;4.15;2.20;;;12.80;99.90;;;;;;4981194;28;20060;-59
2022/08/06 05:15:16;;;;;;;4.68;2.05;;;12.70;99.90;;;;;;4981648;28;20054;-57
2022/08/06 05:17:51;;;;;;;7.22;2.30;;;12.80;99.90;;;;;;4981185;28;20050;-58
2022/08/06 05:20:19;;;;;;;5.05;2.25;;;13.00;99.90;;;;;;4980254;28;20552;-57
2022/08/06 05:22:48;;;;;;;4.90;2.10;;;13.00;99.90;;;;;;4981570;28;20093;-59
2022/08/06 05:25:15;;;;;;;4.97;2.60;;;13.00;99.90;;;;;;4980780;28;20034;-59
2022/08/06 05:27:41;;;;;;;5.03;2.50;;;12.90;99.90;;;;;;4981541;28;20133;-59
2022/08/06 05:30:08;;;;;;;8.00;2.30;;;12.60;99.90;;;;;;4981196;28;20035;-58
2022/08/06 05:32:44;;;;;;;4.47;2.30;;;12.60;99.90;;;;;;4980660;28;20050;-57
2022/08/06 05:35:10;;;;;;;4.88;2.30;;;12.60;99.90;;;;;;4979268;28;20042;-58
2022/08/06 05:37:37;;;;;;;4.97;2.15;;;12.70;99.90;;;;;;4980602;28;20058;-58
2022/08/06 05:40:04;;;;;;;3.22;1.88;;;12.80;99.90;;;;;;4980839;28;20085;-58
2022/08/06 05:42:30;;;;;;;4.05;1.63;;;13.00;99.90;;;;;;4979916;28;20141;-58
2022/08/06 05:44:55;;;;;;;3.70;1.70;;;13.40;99.90;;;;;;4980028;28;20569;-55
2022/08/06 05:47:26;;;;;;;3.28;1.77;;;14.40;99.90;;;;;;4980440;28;20042;-58
2022/08/06 05:50:04;;;;;;;2.75;1.27;;;15.00;99.90;;;;;;4979655;28;20112;-58
2022/08/06 05:52:44;;;;;;;4.30;1.42;;;15.70;99.90;;;;;;4980241;28;20058;-58
2022/08/06 05:55:34;;;;;;;5.53;1.58;;;16.10;99.90;;;;;;4980666;28;20121;-57
2022/08/06 05:58:04;;;;;;;2.63;1.30;;;16.00;99.90;;;;;;4980279;28;20057;-58
2022/08/06 06:00:32;;;;;;;4.72;1.42;;;16.20;99.90;;;;;;4980125;28;20046;-57
2022/08/06 06:02:59;;;;;;;3.40;1.33;;;15.80;99.90;;;;;;4980455;28;20061;-57
2022/08/06 06:05:25;;;;;;;4.95;1.42;;;15.40;99.90;;;;;;4978539;28;20841;-58
2022/08/06 06:07:54;;;;;;;3.75;1.33;;;14.90;99.90;;;;;;4991331;28;20054;-58
2022/08/06 06:10:23;;;;;;;2.83;1.13;;;14.80;99.90;;;;;;4979783;28;20470;-58
2022/08/06 06:12:49;;;;;;;3.58;1.38;;;14.60;99.90;;;;;;4979468;28;20145;-57
2022/08/06 06:15:17;;;;;;;6.72;1.67;;;14.50;99.90;;;;;;4980485;28;20133;-58
2022/08/06 06:18:01;;;;;;;2.95;1.20;;;14.40;99.90;;;;;;4979116;28;20090;-57
2022/08/06 06:20:45;;;;;;;2.70;1.30;;;14.20;99.90;;;;;;4978140;28;20038;-58
2022/08/06 06:23:29;;;;;;;2.70;1.40;;;14.20;99.90;;;;;;4980553;28;20046;-57
2022/08/06 06:26:15;;;;;;;2.92;1.05;;;14.20;99.90;;;;;;4978996;28;20652;-58
2022/08/06 06:29:01;;;;;;;2.17;1.05;;;14.70;99.90;;;;;;4980350;28;20237;-57
2022/08/06 06:32:02;;;;;;;3.58;0.90;;;15.50;99.90;;;;;;4979087;28;20046;-58
2022/08/06 06:34:54;;;;;;;3.58;1.10;;;15.70;99.90;;;;;;4978140;28;20500;-57
2022/08/06 06:37:57;;;;;;;2.25;1.00;;;16.10;99.90;;;;;;4978958;28;20792;-57
2022/08/06 06:40:35;;;;;;;5.22;1.40;;;16.30;99.90;;;;;;4979360;28;20066;-57
2022/08/06 06:43:00;;;;;;;3.05;0.90;;;17.10;99.90;;;;;;4979126;28;20481;-58
2022/08/06 06:45:42;;;;;;;2.17;0.88;;;17.60;99.90;;;;;;4977408;28;20042;-57
2022/08/06 06:48:23;;;;;;;2.00;0.80;;;17.60;99.90;;;;;;4978316;28;20054;-57
2022/08/06 06:50:53;;;;;;;1.50;0.60;;;17.40;99.90;;;;;;4978732;28;20432;-57
2022/08/06 06:53:20;;;;;;;5.60;0.80;;;18.10;99.90;;;;;;4978728;28;20054;-58
2022/08/06 06:55:53;;;;;;;2.25;0.60;;;18.60;99.90;;;;;;4978284;28;20149;-57
2022/08/06 06:58:34;;;;;;;2.58;0.52;;;19.20;99.90;;;;;;4977627;28;20515;-58
2022/08/06 07:01:03;;;;;;;2.90;0.70;;;19.40;99.90;;;;;;4978969;28;20117;-60
2022/08/06 07:03:33;;;;;;;1.50;0.70;;;19.00;99.90;;;;;;4977973;28;20046;-59
2022/08/06 07:05:59;;;;;;;1.85;0.70;;;18.40;99.90;;;;;;4980634;28;20121;-58
2022/08/06 07:08:27;;;;;;;3.70;0.70;;;17.80;99.90;;;;;;4987531;28;20042;-59
2022/08/06 07:10:55;;;;;;;1.77;0.80;;;17.50;99.90;;;;;;4978815;28;20652;-59
2022/08/06 07:13:22;;;;;;;3.72;0.80;;;17.40;99.90;;;;;;4978152;28;20046;-59
2022/08/06 07:15:49;;;;;;;2.13;0.70;;;17.10;99.90;;;;;;4977638;28;20109;-59
2022/08/06 07:18:16;;;;;;;1.98;0.52;;;17.10;99.90;;;;;;4979089;28;20054;-58
2022/08/06 07:20:43;;;;;;;1.50;0.68;;;17.00;99.90;;;;;;4978769;28;20054;-58
2022/08/06 07:23:10;;;;;;;2.30;0.50;;;16.90;99.90;;;;;;4978057;28;20073;-58
2022/08/06 07:25:43;;;;;;;3.05;0.82;;;16.90;99.90;;;;;;4979169;28;20697;-59
2022/08/06 07:28:12;;;;;;;1.40;0.60;;;17.10;99.90;;;;;;4978753;28;20046;-59
2022/08/06 07:30:39;;;;;;;1.83;0.60;;;16.80;99.90;;;;;;4977988;28;20054;-59
2022/08/06 07:33:08;;;;;;;2.22;0.55;;;16.80;99.90;;;;;;4978800;28;20828;-59
2022/08/06 07:35:34;;;;;;;2.40;0.70;;;16.60;99.90;;;;;;4978161;28;20400;-58
2022/08/06 07:38:03;;;;;;;2.13;0.70;;;16.70;99.90;;;;;;4978726;28;20049;-58
2022/08/06 07:40:32;;;;;;;2.08;0.77;;;16.60;99.90;;;;;;4977589;28;20073;-59
2022/08/06 07:43:08;;;;;;;3.75;1.02;;;16.30;99.90;;;;;;4978692;28;20046;-59
2022/08/06 07:45:34;;;;;;;1.92;0.57;;;16.60;99.90;;;;;;4986765;28;20136;-59
2022/08/06 07:48:06;;;;;;;1.63;0.70;;;16.90;99.90;;;;;;5005850;28;20731;-57
2022/08/06 07:50:32;;;;;;;2.45;0.40;;;17.40;99.90;;;;;;5004464;28;20038;-59
2022/08/06 07:52:59;;;;;;;1.20;0.43;;;18.00;99.90;;;;;;5007081;28;20064;-58
2022/08/06 07:55:26;;;;;;;2.88;0.57;;;18.20;99.90;;;;;;5002725;28;20099;-59
2022/08/06 07:57:54;;;;;;;2.88;0.45;;;18.70;99.90;;;;;;4997987;28;20056;-60
2022/08/06 08:00:22;;;;;;;2.42;0.50;;;19.00;99.90;;;;;;4998096;28;20062;-58
2022/08/06 08:08:19;;;;;;;1.52;0.50;;;18.90;99.90;;;;;;4985209;28;20046;-61
2022/08/06 08:10:45;;;;;;;3.30;0.50;;;19.00;99.90;;;;;;4997808;28;20056;-58
2022/08/06 08:13:12;;;;;;;3.85;0.60;;;19.20;99.90;;;;;;4999233;28;20046;-59
2022/08/06 08:15:38;;;;;;;3.67;0.60;;;19.10;99.90;;;;;;5001872;28;20060;-60
2022/08/06 08:18:04;;;;;;;3.35;0.85;;;19.00;99.90;;;;;;5002094;28;20037;-59
2022/08/06 08:20:31;;;;;;;3.63;0.70;;;19.40;99.90;;;;;;4999977;28;20046;-59
2022/08/06 08:22:57;;;;;;;4.50;0.80;;;19.30;99.90;;;;;;5001897;28;20053;-58
2022/08/06 08:25:24;;;;;;;2.03;0.50;;;19.70;99.90;;;;;;5001894;28;20046;-58
2022/08/06 08:27:51;;;;;;;2.13;0.60;;;19.50;99.90;;;;;;5001911;28;20046;-58
2022/08/06 08:30:17;;;;;;;1.42;0.40;;;19.90;99.90;;;;;;5000847;28;20046;-57
2022/08/06 08:32:43;;;;;;;2.35;0.50;;;19.70;99.90;;;;;;5002442;28;20045;-58
2022/08/06 08:35:11;;;;;;;2.50;0.65;;;19.70;99.90;;;;;;5000909;28;20050;-60
2022/08/06 08:37:37;;;;;;;2.05;0.60;;;19.80;99.90;;;;;;5001238;28;20049;-59
2022/08/06 08:40:03;;;;;;;3.58;0.63;;;19.50;99.90;;;;;;5001405;28;20124;-60
2022/08/06 08:42:36;;;;;;;1.90;0.60;;;19.60;99.90;;;;;;5000795;28;20045;-59
2022/08/06 08:45:03;;;;;;;1.88;0.40;;;19.80;99.90;;;;;;5001011;28;20091;-58
2022/08/06 08:47:30;;;;;;;2.17;0.57;;;20.20;99.90;;;;;;5000114;28;20049;-59
2022/08/06 08:49:59;;;;;;;4.07;0.47;;;20.70;99.90;;;;;;5000774;28;20042;-58
2022/08/06 08:52:31;;;;;;;1.35;0.43;;;21.30;99.90;;;;;;5001038;28;20065;-58
2022/08/06 08:55:01;;;;;;;3.00;0.65;;;20.80;99.90;;;;;;5000339;28;20049;-58
2022/08/06 08:57:28;;;;;;;2.72;0.60;;;20.20;99.90;;;;;;5000903;28;20061;-59
2022/08/06 08:59:54;;;;;;;3.53;0.70;;;19.60;99.90;;;;;;5001272;28;20054;-58
2022/08/06 09:02:20;;;;;;;4.15;0.88;;;19.40;99.90;;;;;;5000888;28;20041;-58
2022/08/06 09:04:46;;;;;;;3.05;0.70;;;19.10;99.90;;;;;;4999904;28;20065;-58
2022/08/06 09:07:12;;;;;;;1.13;0.50;;;19.20;99.90;;;;;;4994789;28;20042;-60
2022/08/06 09:09:39;;;;;;;3.03;0.40;;;19.20;99.90;;;;;;4998454;28;20037;-59
2022/08/06 09:12:06;;;;;;;7.43;0.88;;;19.20;99.90;;;;;;5000186;28;20061;-58
2022/08/06 09:14:31;;;;;;;2.53;0.57;;;19.30;99.90;;;;;;4998561;28;20060;-58
2022/08/06 09:16:59;;;;;;;2.28;0.60;;;19.30;99.90;;;;;;5000324;28;20041;-58
2022/08/06 09:19:28;;;;;;;2.13;0.60;;;19.40;99.90;;;;;;4999768;28;20129;-58
2022/08/06 09:21:56;;;;;;;2.70;0.68;;;19.80;99.90;;;;;;5000860;28;20404;-59
2022/08/06 09:24:22;;;;;;;2.75;0.70;;;20.40;99.90;;;;;;4999424;28;20343;-59
2022/08/06 09:27:05;;;;;;;3.78;0.80;;;20.90;99.90;;;;;;5000075;28;20077;-59
2022/08/06 09:29:32;;;;;;;3.08;0.60;;;21.50;99.90;;;;;;5007719;28;20399;-59
2022/08/06 09:31:58;;;;;;;2.88;0.55;;;21.40;99.90;;;;;;5011243;28;20042;-59
2022/08/06 09:34:37;;;;;;;3.83;0.73;;;21.20;99.90;;;;;;5018846;28;20073;-58
2022/08/06 09:37:03;;;;;;;1.00;0.60;;;20.60;99.90;;;;;;5020452;28;20091;-59
2022/08/06 09:39:39;;;;;;;2.85;0.80;;;20.70;99.90;;;;;;5019337;28;20455;-59
2022/08/06 09:42:06;;;;;;;5.20;0.80;;;20.80;99.90;;;;;;5020306;28;20053;-59
2022/08/06 09:44:32;;;;;;;2.38;0.82;;;21.20;99.90;;;;;;5016557;28;20049;-60
2022/08/06 09:46:59;;;;;;;5.15;0.77;;;21.30;99.90;;;;;;5009301;28;20041;-58
2022/08/06 09:49:26;;;;;;;3.80;1.05;;;20.90;99.90;;;;;;5019365;28;20060;-58
2022/08/06 09:52:10;;;;;;;3.35;1.00;;;20.50;99.90;;;;;;5001823;28;20782;-59
2022/08/06 09:54:36;;;;;;;;;;;20.00;99.90;;;;;;4997944;28;20034;-59
2022/08/06 09:57:02;;;;;;;2.67;0.95;;;19.60;99.90;;;;;;4999884;28;19925;-58
2022/08/06 09:59:28;;;;;;;2.45;1.00;;;19.60;99.90;;;;;;4998272;28;20099;-59
2022/08/06 10:01:54;;;;;;;5.80;1.20;;;19.30;99.90;;;;;;4999285;28;20042;-58
2022/08/06 10:04:27;;;;;;;4.88;1.20;;;19.50;99.90;;;;;;5007984;28;20089;-58
2022/08/06 10:06:58;;;;;;;4.28;1.25;;;19.50;99.90;;;;;;5004773;28;20050;-58
2022/08/06 10:09:25;;;;;;;3.92;1.13;;;19.70;99.90;;;;;;4989526;28;20468;-58
2022/08/06 10:11:51;;;;;;;3.75;1.27;;;19.70;99.90;;;;;;4998764;28;20452;-58
2022/08/06 10:14:26;;;;;;;1.88;1.02;;;20.10;99.90;;;;;;4999454;28;20446;-58
2022/08/06 10:17:15;;;;;;;4.18;1.30;;;20.40;99.90;;;;;;4999755;28;20100;-58
2022/08/06 10:19:46;;;;;;;5.80;1.17;;;20.90;99.90;;;;;;4999125;28;20057;-59
2022/08/06 10:22:16;;;;;;;3.35;1.10;;;21.60;99.90;;;;;;4999653;28;20049;-60
2022/08/06 10:24:51;;;;;;;4.88;1.20;;;22.20;99.90;;;;;;5001134;28;20065;-57
2022/08/06 10:27:21;;;;;;;4.25;1.20;;;22.40;99.90;;;;;;4998878;28;20674;-58
2022/08/06 10:29:52;;;;;;;2.35;1.30;;;22.10;99.90;;;;;;4999544;28;20465;-58
2022/08/06 10:32:50;;;;;;;2.28;1.05;;;22.50;99.90;;;;;;4998578;28;20081;-58
2022/08/06 10:35:21;;;;;;;3.72;1.00;;;22.40;99.90;;;;;;4992345;28;20477;-57
2022/08/06 10:37:56;;;;;;;2.80;1.10;;;22.10;99.90;;;;;;4997639;28;20053;-59
2022/08/06 10:40:22;;;;;;;3.38;1.15;;;21.60;99.90;;;;;;4998693;28;20080;-58
2022/08/06 10:42:49;;;;;;;4.05;1.20;;;21.30;99.90;;;;;;4999058;28;20052;-58
2022/08/06 10:45:15;;;;;;;2.03;1.10;;;21.10;99.90;;;;;;4997817;28;20104;-58
2022/08/06 10:47:44;;;;;;;4.03;1.50;;;21.30;99.90;;;;;;4998553;28;20042;-59
2022/08/06 10:50:12;;;;;;;2.83;1.48;;;21.30;99.90;;;;;;4997995;28;20061;-59
2022/08/06 10:52:39;;;;;;;2.83;1.02;;;21.80;99.90;;;;;;4999032;28;20104;-59
2022/08/06 10:55:05;;;;;;;4.20;1.27;;;22.30;99.90;;;;;;4999076;28;20072;-58
2022/08/06 10:57:32;;;;;;;4.15;1.50;;;22.40;99.90;;;;;;4998207;28;20595;-59
2022/08/06 11:00:00;;;;;;;3.35;1.10;;;23.20;99.90;;;;;;4998920;28;20080;-59
2022/08/06 11:02:36;;;;;;;2.90;1.00;;;23.30;99.90;;;;;;4998693;28;20072;-60
2022/08/06 11:05:09;;;;;;;2.75;1.08;;;23.60;99.90;;;;;;4997215;28;20712;-58
2022/08/06 11:08:12;;;;;;;1.88;1.10;;;23.60;99.90;;;;;;4991117;28;20050;-59
2022/08/06 11:11:07;;;;;;;3.35;1.38;;;23.40;99.90;;;;;;4979146;28;20132;-58
2022/08/06 11:13:40;;;;;;;2.30;1.25;;;23.00;99.90;;;;;;4978730;28;20145;-59
2022/08/06 11:16:06;;;;;;;3.20;1.23;;;22.60;99.90;;;;;;4979377;28;20046;-58
2022/08/06 11:18:32;;;;;;;3.33;1.50;;;22.30;99.90;;;;;;4978511;28;20161;-58
2022/08/06 11:21:00;;;;;;;2.35;1.52;;;22.10;99.90;;;;;;4979009;28;20125;-57
2022/08/06 11:23:30;;;;;;;4.35;1.60;;;22.40;99.90;;;;;;4977947;28;20069;-59
2022/08/06 11:25:58;;;;;;;3.25;1.63;;;23.10;99.90;;;;;;4978737;28;20092;-58
2022/08/06 11:28:27;;;;;;;3.80;1.67;;;23.30;99.90;;;;;;4978974;28;20054;-58
2022/08/06 11:30:54;;;;;;;4.85;1.80;;;23.40;99.90;;;;;;4978150;28;20137;-59
2022/08/06 11:33:30;;;;;;;3.85;1.52;;;23.40;99.90;;;;;;4978363;28;20085;-57
2022/08/06 11:35:55;;;;;;;6.18;1.73;;;23.20;99.90;;;;;;4979060;28;20481;-57
2022/08/06 11:38:42;;;;;;;3.13;1.67;;;23.60;99.90;;;;;;4978548;28;20054;-59
2022/08/06 11:41:09;;;;;;;3.55;1.80;;;23.80;99.90;;;;;;4978831;28;20133;-57
2022/08/06 11:43:47;;;;;;;5.40;2.20;;;23.40;99.90;;;;;;4979035;28;20061;-58
2022/08/06 11:46:38;;;;;;;4.45;2.03;;;23.40;99.90;;;;;;4978783;28;20038;-57
2022/08/06 11:49:03;;;;;;;3.45;1.92;;;23.70;99.90;;;;;;4981460;28;20054;-57
2022/08/06 11:51:41;;;;;;;3.03;1.75;;;24.00;99.90;;;;;;4984140;28;20050;-58
2022/08/06 11:54:19;;;;;;;5.22;2.08;;;23.30;99.90;;;;;;5000145;28;20069;-57
2022/08/06 11:57:06;;;;;;;4.70;2.45;;;23.00;99.90;;;;;;4985355;28;20042;-57
2022/08/06 11:59:49;;;;;;;5.07;2.35;;;22.60;99.90;;;;;;4985337;28;20058;-58
2022/08/06 12:02:37;;;;;;;8.57;2.55;;;22.80;99.90;;;;;;4984229;28;20082;-57
2022/08/06 12:05:03;;;;;;;4.20;2.47;;;23.20;99.90;;;;;;4984324;28;20125;-58
2022/08/06 12:07:30;;;;;;;3.80;2.35;;;23.60;99.90;;;;;;4995641;28;20128;-58
2022/08/06 12:10:00;;;;;;;4.25;2.10;;;23.70;99.90;;;;;;4984407;28;20062;-56
2022/08/06 12:12:27;;;;;;;4.05;2.70;;;24.10;99.90;;;;;;4984631;28;20096;-58
2022/08/06 12:14:57;;;;;;;4.90;2.67;;;23.80;99.90;;;;;;4985485;28;20470;-57
2022/08/06 12:17:24;;;;;;;5.28;2.53;;;23.30;99.90;;;;;;4982405;28;20129;-57
2022/08/06 12:19:52;;;;;;;4.78;2.60;;;23.90;99.90;;;;;;4983264;28;20512;-58
2022/08/06 12:22:20;;;;;;;5.90;2.67;;;23.70;99.90;;;;;;4984513;28;20062;-57
2022/08/06 12:24:49;;;;;;;3.65;2.20;;;23.60;99.90;;;;;;4985383;28;20096;-58
2022/08/06 12:27:16;;;;;;;5.13;3.00;;;23.30;99.90;;;;;;4984859;28;20058;-57
2022/08/06 12:29:43;;;;;;;3.88;2.38;;;23.20;99.90;;;;;;4985769;28;20097;-58
2022/08/06 12:32:27;;;;;;;6.25;2.88;;;23.30;99.90;;;;;;4984775;28;20042;-57
2022/08/06 12:34:56;;;;;;;6.38;2.42;;;23.20;99.90;;;;;;4984563;28;20061;-58
2022/08/06 12:37:36;;;;;;;4.40;2.53;;;23.40;99.90;;;;;;4984627;28;20052;-57
2022/08/06 12:40:28;;;;;;;6.43;2.75;;;23.60;99.90;;;;;;4984033;28;20061;-57
2022/08/06 12:43:02;;;;;;;3.75;2.60;;;24.10;99.90;;;;;;4984807;28;20520;-59
2022/08/06 12:45:28;;;;;;;;;;;23.90;99.90;;;;;;4983846;28;20078;-61
2022/08/06 12:48:01;;;;;;;3.85;2.40;;;23.40;99.90;;;;;;4985136;28;19929;-60
2022/08/06 12:50:28;;;;;;;3.60;2.47;;;23.90;99.90;;;;;;4983574;28;20057;-60
2022/08/06 12:53:12;;;;;;;4.40;2.58;;;24.40;99.90;;;;;;4984478;28;20042;-59
2022/08/06 12:55:41;;;;;;;3.90;2.85;;;24.40;99.90;;;;;;4983551;28;20177;-59
2022/08/06 12:58:09;;;;;;;4.40;3.13;;;24.30;99.90;;;;;;4984551;28;20042;-58
2022/08/06 13:00:36;;;;;;;4.53;3.30;;;24.50;99.90;;;;;;4981388;28;20409;-59
2022/08/06 13:03:05;;;;;;;5.40;3.08;;;24.80;99.90;;;;;;4981467;28;20058;-59
2022/08/06 13:05:32;;;;;;;6.85;3.72;;;24.70;99.90;;;;;;4983078;28;20049;-58
2022/08/06 13:07:58;;;;;;;3.88;3.42;;;24.30;99.90;;;;;;4986255;28;20054;-62
2022/08/06 13:10:24;;;;;;;5.45;3.70;;;24.20;99.90;;;;;;4985827;28;20049;-61